createdAt,value
2023-05-10T00:00:05.923Z,101098.08
2023-05-10T00:01:11.273Z,101094.22
2023-05-10T00:02:17.042Z,101096.8
2023-05-10T00:03:22.647Z,101090.96
2023-05-10T00:04:28.289Z,101093.64
2023-05-10T00:05:33.649Z,101084.33
2023-05-10T00:06:39.000Z,101093.64
2023-05-10T00:07:44.416Z,101086.88
2023-05-10T00:08:49.987Z,101088.56
2023-05-10T00:09:55.340Z,101091.79
2023-05-10T00:11:00.692Z,101091.79
2023-05-10T00:12:06.016Z,101089.62
2023-05-10T00:13:11.404Z,101083.84
2023-05-10T00:14:16.947Z,101091.44
2023-05-10T00:15:22.299Z,101089.2
2023-05-10T00:16:27.726Z,101084.27
2023-05-10T00:17:33.205Z,101085.19
2023-05-10T00:18:38.581Z,101080.31
2023-05-10T00:19:43.901Z,101087.52
2023-05-10T00:20:49.252Z,101082.16
2023-05-10T00:21:54.585Z,101081.66
2023-05-10T00:22:59.901Z,101075.3
2023-05-10T00:24:05.262Z,101076.51
2023-05-10T00:25:10.609Z,101080.18
2023-05-10T00:26:15.937Z,101078.39
2023-05-10T00:27:21.357Z,101073.55
2023-05-10T00:28:26.673Z,101073.48
2023-05-10T00:29:32.083Z,101077.56
2023-05-10T00:30:37.437Z,101072.97
2023-05-10T00:31:42.801Z,101078.84
2023-05-10T00:32:48.320Z,101069.12
2023-05-10T00:33:53.698Z,101071.34
2023-05-10T00:34:59.067Z,101068.77
2023-05-10T00:36:04.404Z,101070.45
2023-05-10T00:37:09.744Z,101069.59
2023-05-10T00:38:17.593Z,101076.23
2023-05-10T00:39:22.947Z,101078.67
2023-05-10T00:40:28.269Z,101070.23
2023-05-10T00:41:33.618Z,101071.47
2023-05-10T00:42:38.972Z,101069.12
2023-05-10T00:43:44.304Z,101065.16
2023-05-10T00:44:49.644Z,101077.16
2023-05-10T00:45:55.039Z,101065.23
2023-05-10T00:47:00.442Z,101068.42
2023-05-10T00:48:05.933Z,101072.5
2023-05-10T00:49:11.409Z,101068.77
2023-05-10T00:50:17.410Z,101065.58
2023-05-10T00:51:23.125Z,101058.95
2023-05-10T00:52:28.509Z,101052.25
2023-05-10T00:53:33.897Z,101061.15
2023-05-10T00:54:39.248Z,101055.21
2023-05-10T00:55:44.590Z,101064.3
2023-05-10T00:56:49.993Z,101063.77
2023-05-10T00:57:55.345Z,101062.83
2023-05-10T00:59:00.652Z,101052.7
2023-05-10T01:00:06.028Z,101061.86
2023-05-10T01:01:11.477Z,101060.28
2023-05-10T01:02:16.928Z,101055.38
2023-05-10T01:03:22.498Z,101060.64
2023-05-10T01:04:28.360Z,101054.52
2023-05-10T01:05:33.817Z,101064.81
2023-05-10T01:06:39.137Z,101054.75
2023-05-10T01:07:44.732Z,101049.87
2023-05-10T01:08:50.070Z,101058.87
2023-05-10T01:09:55.387Z,101052.07
2023-05-10T01:11:00.730Z,101055.09
2023-05-10T01:12:06.124Z,101047.7
2023-05-10T01:13:11.763Z,101049.45
2023-05-10T01:14:17.130Z,101050.22
2023-05-10T01:15:22.480Z,101046.64
2023-05-10T01:16:28.072Z,101046.2
2023-05-10T01:17:33.609Z,101046.89
2023-05-10T01:18:39.005Z,101042.33
2023-05-10T01:19:44.362Z,101047.75
2023-05-10T01:20:49.754Z,101042.05
2023-05-10T01:21:55.095Z,101040.64
2023-05-10T01:23:00.464Z,101038.86
2023-05-10T01:24:05.854Z,101032.26
2023-05-10T01:25:11.213Z,101044.73
2023-05-10T01:26:16.536Z,101038.16
2023-05-10T01:27:22.099Z,101039.38
2023-05-10T01:28:27.511Z,101035.63
2023-05-10T01:29:32.914Z,101038.86
2023-05-10T01:30:38.270Z,101041.64
2023-05-10T01:31:43.872Z,101038.52
2023-05-10T01:32:49.359Z,101031.33
2023-05-10T01:33:54.814Z,101026.8
2023-05-10T01:35:00.235Z,101025.81
2023-05-10T01:36:05.568Z,101026.45
2023-05-10T01:37:10.879Z,101027.45
2023-05-10T01:38:16.185Z,101025.05
2023-05-10T01:39:21.514Z,101026.55
2023-05-10T01:40:26.975Z,101039.44
2023-05-10T01:41:32.404Z,101027.1
2023-05-10T01:42:37.781Z,101030.73
2023-05-10T01:43:43.144Z,101023.63
2023-05-10T01:44:48.468Z,101033.07
2023-05-10T01:45:53.782Z,101022.45
2023-05-10T01:46:59.324Z,101030.73
2023-05-10T01:48:04.990Z,101021.88
2023-05-10T01:49:10.543Z,101028.02
2023-05-10T01:50:16.620Z,101022.36
2023-05-10T01:51:22.811Z,101026.69
2023-05-10T01:52:28.161Z,101022.19
2023-05-10T01:53:33.484Z,101018.69
2023-05-10T01:54:38.958Z,101024.2
2023-05-10T01:55:44.340Z,101018.09
2023-05-10T01:56:49.686Z,101023.45
2023-05-10T01:57:55.019Z,101022.45
2023-05-10T01:59:00.368Z,101019.68
2023-05-10T02:00:05.771Z,101026.47
2023-05-10T02:01:11.188Z,101020.19
2023-05-10T02:02:16.650Z,101020.13
2023-05-10T02:03:22.097Z,101012.22
2023-05-10T02:04:27.539Z,101013.91
2023-05-10T02:05:32.884Z,101016.01
2023-05-10T02:06:38.216Z,101017.92
2023-05-10T02:07:43.618Z,101016.59
2023-05-10T02:08:48.957Z,101017.92
2023-05-10T02:09:54.308Z,101017.52
2023-05-10T02:10:59.639Z,101018.34
2023-05-10T02:12:04.994Z,101012.98
2023-05-10T02:13:10.544Z,101012.56
2023-05-10T02:14:16.086Z,101004.53
2023-05-10T02:15:21.461Z,101012.91
2023-05-10T02:16:26.810Z,101014.16
2023-05-10T02:17:32.237Z,101006.53
2023-05-10T02:18:37.674Z,101006.19
2023-05-10T02:19:43.289Z,101000.58
2023-05-10T02:20:48.635Z,101005.94
2023-05-10T02:21:53.980Z,101005.88
2023-05-10T02:22:59.369Z,101004.12
2023-05-10T02:24:04.736Z,101007.72
2023-05-10T02:25:10.054Z,101011.3
2023-05-10T02:26:15.389Z,101005.11
2023-05-10T02:27:20.849Z,101002.37
2023-05-10T02:28:26.232Z,101007.28
2023-05-10T02:29:31.610Z,101004.19
2023-05-10T02:30:36.924Z,101008.2
2023-05-10T02:31:42.292Z,101004.12
2023-05-10T02:32:47.849Z,101001.51
2023-05-10T02:33:53.240Z,101009.06
2023-05-10T02:34:58.559Z,101008.55
2023-05-10T02:36:03.883Z,101011.58
2023-05-10T02:37:09.268Z,101008.28
2023-05-10T02:38:14.612Z,101003.44
2023-05-10T02:39:19.942Z,101005.73
2023-05-10T02:40:27.418Z,101007.72
2023-05-10T02:41:33.879Z,101008.72
2023-05-10T02:42:39.237Z,101006.8
2023-05-10T02:43:44.593Z,101009.48
2023-05-10T02:44:49.949Z,101006.22
2023-05-10T02:45:55.366Z,101003.77
2023-05-10T02:47:00.772Z,101011.39
2023-05-10T02:48:06.181Z,101000.68
2023-05-10T02:49:11.632Z,101006.94
2023-05-10T02:50:17.676Z,101006.86
2023-05-10T02:51:23.357Z,101010.41
2023-05-10T02:52:28.705Z,101005.94
2023-05-10T02:53:34.072Z,101000.93
2023-05-10T02:54:39.519Z,101006.86
2023-05-10T02:55:44.886Z,101007.72
2023-05-10T02:56:50.206Z,101004.6
2023-05-10T02:57:55.565Z,101002.09
2023-05-10T02:59:00.883Z,101006.94
2023-05-10T03:00:06.217Z,101006.69
2023-05-10T03:01:11.604Z,101007.03
2023-05-10T03:02:17.054Z,101002.56
2023-05-10T03:03:22.392Z,101007.58
2023-05-10T03:04:27.791Z,101004.35
2023-05-10T03:05:33.197Z,101003.49
2023-05-10T03:06:38.505Z,101007.09
2023-05-10T03:07:43.801Z,101004.9
2023-05-10T03:08:49.160Z,101004.9
2023-05-10T03:09:54.552Z,101005.34
2023-05-10T03:10:59.892Z,101012.11
2023-05-10T03:12:05.254Z,101006.17
2023-05-10T03:13:10.713Z,101003.49
2023-05-10T03:14:16.203Z,101007.92
2023-05-10T03:15:21.582Z,101009.27
2023-05-10T03:16:27.171Z,100996.16
2023-05-10T03:17:32.732Z,101001.58
2023-05-10T03:18:38.213Z,101004.25
2023-05-10T03:19:43.549Z,101001.23
2023-05-10T03:20:49.907Z,100991.38
2023-05-10T03:21:55.276Z,100994.53
2023-05-10T03:23:00.604Z,100997.56
2023-05-10T03:24:06.028Z,100993.54
2023-05-10T03:25:11.369Z,100996.08
2023-05-10T03:26:16.697Z,100991.07
2023-05-10T03:27:22.046Z,100992
2023-05-10T03:28:27.407Z,100998.91
2023-05-10T03:29:32.774Z,101004.33
2023-05-10T03:30:38.216Z,100993.75
2023-05-10T03:31:43.708Z,100996.02
2023-05-10T03:32:49.256Z,100991.48
2023-05-10T03:33:54.724Z,100992.13
2023-05-10T03:35:00.137Z,100991.14
2023-05-10T03:36:05.485Z,100985.2
2023-05-10T03:37:10.838Z,100989.32
2023-05-10T03:38:16.185Z,100983.77
2023-05-10T03:39:21.514Z,100988.2
2023-05-10T03:40:26.866Z,100989.47
2023-05-10T03:41:32.196Z,100993.9
2023-05-10T03:42:37.544Z,100993.9
2023-05-10T03:43:42.876Z,100984.52
2023-05-10T03:44:48.194Z,100995.17
2023-05-10T03:45:53.576Z,100988.95
2023-05-10T03:46:59.044Z,100998.27
2023-05-10T03:48:04.605Z,100992.91
2023-05-10T03:49:10.902Z,100995.1
2023-05-10T03:50:17.351Z,100993.66
2023-05-10T03:51:23.261Z,100990.57
2023-05-10T03:52:28.594Z,100996.14
2023-05-10T03:53:33.970Z,100991.33
2023-05-10T03:54:39.371Z,100988.66
2023-05-10T03:55:44.709Z,100993.27
2023-05-10T03:56:50.022Z,100993.22
2023-05-10T03:57:55.357Z,100992.52
2023-05-10T03:59:00.682Z,100992.58
2023-05-10T04:00:06.013Z,100987.76
2023-05-10T04:01:11.341Z,100994.95
2023-05-10T04:02:16.786Z,100985.02
2023-05-10T04:03:22.317Z,100987.31
2023-05-10T04:04:27.797Z,100988.23
2023-05-10T04:05:33.156Z,100984.7
2023-05-10T04:06:38.576Z,100993.82
2023-05-10T04:07:44.071Z,100990.16
2023-05-10T04:08:49.455Z,100989.94
2023-05-10T04:09:54.805Z,100992.85
2023-05-10T04:11:00.172Z,100994.13
2023-05-10T04:12:05.497Z,100993.31
2023-05-10T04:13:13.059Z,100994.17
2023-05-10T04:14:18.462Z,100994.07
2023-05-10T04:15:23.797Z,100991.14
2023-05-10T04:16:29.345Z,100990.05
2023-05-10T04:17:34.833Z,100997.44
2023-05-10T04:18:40.250Z,100985.33
2023-05-10T04:19:45.593Z,100990.68
2023-05-10T04:20:50.977Z,100989.17
2023-05-10T04:21:56.335Z,100993.13
2023-05-10T04:23:01.690Z,100990.96
2023-05-10T04:24:07.009Z,100990.03
2023-05-10T04:25:12.342Z,100996.73
2023-05-10T04:26:17.676Z,100994.33
2023-05-10T04:27:23.063Z,100992
2023-05-10T04:28:28.454Z,100989.73
2023-05-10T04:29:33.788Z,100996.02
2023-05-10T04:30:39.277Z,100991.38
2023-05-10T04:31:44.625Z,100989.87
2023-05-10T04:32:50.187Z,100996.08
2023-05-10T04:33:55.642Z,100991.72
2023-05-10T04:35:00.991Z,100992.55
2023-05-10T04:36:06.357Z,100990.8
2023-05-10T04:37:11.694Z,100985.72
2023-05-10T04:38:17.000Z,100989.45
2023-05-10T04:39:22.324Z,100986.2
2023-05-10T04:40:27.653Z,100987.98
2023-05-10T04:41:33.026Z,100997.08
2023-05-10T04:42:38.372Z,100992.78
2023-05-10T04:43:43.742Z,100996.31
2023-05-10T04:44:49.099Z,100991.14
2023-05-10T04:45:54.467Z,100991.2
2023-05-10T04:46:59.881Z,100994.05
2023-05-10T04:48:05.332Z,100992.3
2023-05-10T04:49:10.721Z,100998.9
2023-05-10T04:50:16.599Z,101003.2
2023-05-10T04:51:22.372Z,101000.83
2023-05-10T04:52:27.738Z,100989.87
2023-05-10T04:53:33.097Z,101002.5
2023-05-10T04:54:38.429Z,101004.78
2023-05-10T04:55:43.767Z,101002.02
2023-05-10T04:56:49.122Z,101004
2023-05-10T04:57:54.483Z,100998.78
2023-05-10T04:58:59.815Z,100998.3
2023-05-10T05:00:05.177Z,101003.14
2023-05-10T05:01:10.733Z,100998.9
2023-05-10T05:02:16.135Z,100999.06
2023-05-10T05:03:21.716Z,101000.88
2023-05-10T05:04:27.340Z,100998.14
2023-05-10T05:05:32.666Z,101004.42
2023-05-10T05:06:37.990Z,100992.02
2023-05-10T05:07:43.335Z,101003.49
2023-05-10T05:08:48.839Z,100999.89
2023-05-10T05:09:54.523Z,100999.41
2023-05-10T05:11:00.871Z,101002.22
2023-05-10T05:12:06.200Z,101000.23
2023-05-10T05:13:11.637Z,101006.52
2023-05-10T05:14:16.999Z,101006.03
2023-05-10T05:15:22.399Z,101000.75
2023-05-10T05:16:27.842Z,101002.22
2023-05-10T05:17:33.288Z,101001.33
2023-05-10T05:18:38.684Z,101002.38
2023-05-10T05:19:44.023Z,100999.55
2023-05-10T05:20:49.481Z,100997.09
2023-05-10T05:21:54.802Z,100999.7
2023-05-10T05:23:00.151Z,100999.3
2023-05-10T05:24:05.496Z,101004.83
2023-05-10T05:25:10.887Z,101000.13
2023-05-10T05:26:17.257Z,101003.22
2023-05-10T05:27:22.606Z,101001.88
2023-05-10T05:28:27.982Z,100998.78
2023-05-10T05:29:33.326Z,101000.47
2023-05-10T05:30:38.663Z,101006.34
2023-05-10T05:31:44.097Z,101012.11
2023-05-10T05:32:49.669Z,101005.41
2023-05-10T05:33:55.398Z,101002.8
2023-05-10T05:35:00.814Z,101007.88
2023-05-10T05:36:06.155Z,101005.2
2023-05-10T05:37:11.464Z,101004.78
2023-05-10T05:38:16.857Z,101007.39
2023-05-10T05:39:22.238Z,101004.38
2023-05-10T05:40:27.599Z,100999.02
2023-05-10T05:41:32.915Z,101006.47
2023-05-10T05:42:38.344Z,101002.97
2023-05-10T05:43:43.750Z,101007.56
2023-05-10T05:44:49.106Z,101002.69
2023-05-10T05:45:54.596Z,101001.51
2023-05-10T05:47:00.034Z,101001
2023-05-10T05:48:05.457Z,100995.99
2023-05-10T05:49:10.988Z,100992.6
2023-05-10T05:50:16.357Z,100998.95
2023-05-10T05:51:21.679Z,101001.28
2023-05-10T05:52:27.037Z,101005.43
2023-05-10T05:53:32.354Z,101001.98
2023-05-10T05:54:37.748Z,101004.25
2023-05-10T05:55:43.161Z,101003.74
2023-05-10T05:56:48.698Z,100998.9
2023-05-10T05:57:54.012Z,100998.83
2023-05-10T05:58:59.355Z,100994.81
2023-05-10T06:00:04.784Z,100997.97
2023-05-10T06:01:10.148Z,100999.89
2023-05-10T06:02:15.622Z,100999.95
2023-05-10T06:03:21.334Z,100990.93
2023-05-10T06:04:27.122Z,101006.66
2023-05-10T06:05:32.789Z,100997.21
2023-05-10T06:06:38.140Z,100998.04
2023-05-10T06:07:43.473Z,100992.78
2023-05-10T06:08:48.825Z,100996.29
2023-05-10T06:09:54.176Z,100997.21
2023-05-10T06:10:59.546Z,100995.94
2023-05-10T06:12:04.886Z,100991.92
2023-05-10T06:13:10.352Z,100994.53
2023-05-10T06:14:15.767Z,100994.02
2023-05-10T06:15:21.158Z,100996.35
2023-05-10T06:16:26.574Z,100993.91
2023-05-10T06:17:32.027Z,100997.8
2023-05-10T06:18:37.401Z,100986.73
2023-05-10T06:19:42.734Z,100996.45
2023-05-10T06:20:48.148Z,100987.91
2023-05-10T06:21:55.240Z,100995.18
2023-05-10T06:23:00.569Z,101000.95
2023-05-10T06:24:05.898Z,100990.52
2023-05-10T06:25:11.284Z,100999.2
2023-05-10T06:26:16.684Z,100984.53
2023-05-10T06:27:22.018Z,100992.91
2023-05-10T06:28:27.390Z,100997.58
2023-05-10T06:29:32.706Z,100991.86
2023-05-10T06:30:38.062Z,100997.21
2023-05-10T06:31:45.912Z,100992.78
2023-05-10T06:32:51.822Z,100982.77
2023-05-10T06:33:58.235Z,100992.62
2023-05-10T06:35:03.585Z,100992.55
2023-05-10T06:36:08.986Z,100988.95
2023-05-10T06:37:14.394Z,100995.7
2023-05-10T06:38:19.788Z,100990.93
2023-05-10T06:39:25.147Z,100994.83
2023-05-10T06:40:30.542Z,100990.05
2023-05-10T06:41:35.909Z,100986.28
2023-05-10T06:42:41.269Z,100992.16
2023-05-10T06:43:46.650Z,100991.58
2023-05-10T06:44:51.984Z,100994.2
2023-05-10T06:45:57.388Z,100994.44
2023-05-10T06:47:02.834Z,100993.56
2023-05-10T06:48:08.256Z,100992.12
2023-05-10T06:49:13.703Z,100992.12
2023-05-10T06:50:19.025Z,100994.16
2023-05-10T06:51:24.379Z,100994.39
2023-05-10T06:52:29.714Z,100996.44
2023-05-10T06:53:35.055Z,100997.59
2023-05-10T06:54:40.407Z,101000.17
2023-05-10T06:55:45.746Z,101000.56
2023-05-10T06:56:51.071Z,101007.8
2023-05-10T06:57:56.425Z,101003.02
2023-05-10T06:59:01.932Z,101001.11
2023-05-10T07:00:07.576Z,101001.11
2023-05-10T07:01:13.444Z,100993.24
2023-05-10T07:02:19.360Z,100996.75
2023-05-10T07:03:24.992Z,100995.41
2023-05-10T07:04:30.375Z,100996.75
2023-05-10T07:05:36.220Z,100992.53
2023-05-10T07:06:41.970Z,100996.55
2023-05-10T07:07:47.326Z,100996.04
2023-05-10T07:08:52.659Z,100993.17
2023-05-10T07:09:57.994Z,100986.68
2023-05-10T07:11:03.382Z,100995.63
2023-05-10T07:12:13.514Z,100993.47
2023-05-10T07:13:20.579Z,100993.3
2023-05-10T07:14:26.113Z,100991.84
2023-05-10T07:15:31.445Z,100986.68
2023-05-10T07:16:36.860Z,100987.13
2023-05-10T07:17:45.945Z,100988.47
2023-05-10T07:18:51.659Z,100983.3
2023-05-10T07:19:57.050Z,100984.93
2023-05-10T07:21:02.538Z,100983.75
2023-05-10T07:22:07.939Z,100984.27
2023-05-10T07:23:13.254Z,100991.86
2023-05-10T07:24:18.580Z,100983.83
2023-05-10T07:25:23.897Z,100982.42
2023-05-10T07:26:29.258Z,100979.41
2023-05-10T07:27:34.637Z,100980.05
2023-05-10T07:28:40.087Z,100981.45
2023-05-10T07:29:45.512Z,100978.41
2023-05-10T07:30:50.926Z,100978.35
2023-05-10T07:31:59.930Z,100980.9
2023-05-10T07:33:05.532Z,100980.05
2023-05-10T07:34:11.930Z,100980.33
2023-05-10T07:35:17.710Z,100980.09
2023-05-10T07:36:23.256Z,100979.75
2023-05-10T07:37:28.626Z,100976.43
2023-05-10T07:38:33.991Z,100971.72
2023-05-10T07:39:39.376Z,100976.59
2023-05-10T07:40:44.791Z,100979.34
2023-05-10T07:41:50.119Z,100972.99
2023-05-10T07:42:55.465Z,100976.59
2023-05-10T07:44:00.884Z,100977.65
2023-05-10T07:45:06.210Z,100978.58
2023-05-10T07:46:11.683Z,100976.37
2023-05-10T07:47:17.101Z,100976.24
2023-05-10T07:48:22.430Z,100975.32
2023-05-10T07:49:27.755Z,100972.23
2023-05-10T07:50:33.083Z,100969.74
2023-05-10T07:51:38.470Z,100975.57
2023-05-10T07:52:43.805Z,100974.58
2023-05-10T07:53:49.113Z,100974.58
2023-05-10T07:54:54.549Z,100968.81
2023-05-10T07:55:59.874Z,100971.08
2023-05-10T07:57:05.231Z,100974.04
2023-05-10T07:58:10.609Z,100974.46
2023-05-10T07:59:15.933Z,100972.99
2023-05-10T08:00:21.355Z,100974.46
2023-05-10T08:01:26.783Z,100975.73
2023-05-10T08:02:32.349Z,100967.06
2023-05-10T08:03:37.972Z,100966.72
2023-05-10T08:04:43.691Z,100972.64
2023-05-10T08:05:49.366Z,100970.1
2023-05-10T08:06:54.716Z,100962.07
2023-05-10T08:08:00.022Z,100963
2023-05-10T08:09:05.391Z,100958.92
2023-05-10T08:10:10.680Z,100966.02
2023-05-10T08:11:16.078Z,100968.7
2023-05-10T08:12:22.744Z,100971.44
2023-05-10T08:13:28.101Z,100955.89
2023-05-10T08:14:33.447Z,100955.31
2023-05-10T08:15:38.810Z,100959.68
2023-05-10T08:16:44.251Z,100974.46
2023-05-10T08:17:49.729Z,100966.78
2023-05-10T08:18:55.207Z,100966.44
2023-05-10T08:20:00.724Z,100961.71
2023-05-10T08:21:06.109Z,100964.87
2023-05-10T08:22:11.428Z,100963.33
2023-05-10T08:23:16.773Z,100962.64
2023-05-10T08:24:22.169Z,100968.34
2023-05-10T08:25:27.492Z,100961.99
2023-05-10T08:26:32.798Z,100964.86
2023-05-10T08:27:38.129Z,100966.26
2023-05-10T08:28:43.537Z,100970.85
2023-05-10T08:29:51.800Z,100963.81
2023-05-10T08:30:57.210Z,100964.04
2023-05-10T08:32:02.553Z,100966.72
2023-05-10T08:33:07.958Z,100964.09
2023-05-10T08:34:13.503Z,100962.41
2023-05-10T08:35:19.167Z,100964.67
2023-05-10T08:36:24.495Z,100962.34
2023-05-10T08:37:29.871Z,100954.61
2023-05-10T08:38:35.186Z,100966.42
2023-05-10T08:39:40.577Z,100958.67
2023-05-10T08:40:46.016Z,100961.99
2023-05-10T08:41:51.377Z,100958.97
2023-05-10T08:42:56.770Z,100964.23
2023-05-10T08:44:02.130Z,100956.13
2023-05-10T08:45:07.479Z,100965.43
2023-05-10T08:46:13.020Z,100957.41
2023-05-10T08:47:18.472Z,100955.14
2023-05-10T08:48:23.890Z,100947.97
2023-05-10T08:49:29.292Z,100948.8
2023-05-10T08:50:34.645Z,100954.08
2023-05-10T08:51:40.904Z,100957.88
2023-05-10T08:52:47.947Z,100946.7
2023-05-10T08:53:53.378Z,100949.79
2023-05-10T08:54:58.717Z,100947.97
2023-05-10T08:56:04.137Z,100953.09
2023-05-10T08:57:09.547Z,100947.62
2023-05-10T08:58:14.958Z,100945.77
2023-05-10T08:59:20.300Z,100934.79
2023-05-10T09:00:25.666Z,100951.83
2023-05-10T09:01:31.153Z,100941
2023-05-10T09:02:36.596Z,100945.84
2023-05-10T09:03:42.070Z,100949.66
2023-05-10T09:04:47.702Z,100941.7
2023-05-10T09:05:53.276Z,100942.11
2023-05-10T09:06:58.628Z,100940.29
2023-05-10T09:08:04.133Z,100938.78
2023-05-10T09:09:09.466Z,100944.55
2023-05-10T09:10:14.815Z,100945.64
2023-05-10T09:11:20.219Z,100948.52
2023-05-10T09:12:25.569Z,100940.19
2023-05-10T09:13:30.905Z,100936.52
2023-05-10T09:14:36.248Z,100931.27
2023-05-10T09:15:41.638Z,100939.43
2023-05-10T09:16:47.127Z,100940.7
2023-05-10T09:17:52.541Z,100950.3
2023-05-10T09:18:58.058Z,100931.05
2023-05-10T09:20:03.509Z,100933.38
2023-05-10T09:21:08.849Z,100934.03
2023-05-10T09:22:14.251Z,100926.58
2023-05-10T09:23:19.583Z,100934.03
2023-05-10T09:24:24.938Z,100930.59
2023-05-10T09:25:30.251Z,100936.57
2023-05-10T09:26:35.631Z,100933.03
2023-05-10T09:27:41.085Z,100925.29
2023-05-10T09:28:46.429Z,100932.33
2023-05-10T09:29:51.756Z,100930.64
2023-05-10T09:30:57.144Z,100921.69
2023-05-10T09:32:02.654Z,100932.61
2023-05-10T09:33:08.136Z,100936.18
2023-05-10T09:34:13.510Z,100936.92
2023-05-10T09:35:19.363Z,100934.59
2023-05-10T09:36:24.797Z,100931.75
2023-05-10T09:37:30.138Z,100932.33
2023-05-10T09:38:35.497Z,100946.34
2023-05-10T09:39:40.800Z,100936.52
2023-05-10T09:40:46.135Z,100935.12
2023-05-10T09:41:51.467Z,100941.33
2023-05-10T09:42:56.819Z,100932.37
2023-05-10T09:44:02.282Z,100932.45
2023-05-10T09:45:07.614Z,100936.62
2023-05-10T09:46:13.000Z,100937.52
2023-05-10T09:47:18.427Z,100937.1
2023-05-10T09:48:23.832Z,100935.77
2023-05-10T09:49:29.152Z,100938.37
2023-05-10T09:50:34.566Z,100939.2
2023-05-10T09:51:39.917Z,100948.85
2023-05-10T09:52:45.294Z,100942.5
2023-05-10T09:53:50.659Z,100934
2023-05-10T09:54:56.053Z,100933.14
2023-05-10T09:56:01.426Z,100935.81
2023-05-10T09:57:06.765Z,100927.09
2023-05-10T09:58:12.167Z,100937.45
2023-05-10T09:59:17.489Z,100930.53
2023-05-10T10:00:22.871Z,100930.18
2023-05-10T10:01:28.298Z,100929.93
2023-05-10T10:02:33.785Z,100927.09
2023-05-10T10:03:39.259Z,100926.1
2023-05-10T10:04:44.670Z,100925.27
2023-05-10T10:05:50.105Z,100916.45
2023-05-10T10:06:55.446Z,100924.13
2023-05-10T10:08:00.777Z,100929.14
2023-05-10T10:09:06.193Z,100926.81
2023-05-10T10:10:11.542Z,100924.41
2023-05-10T10:11:16.894Z,100923.14
2023-05-10T10:12:22.330Z,100918.37
2023-05-10T10:13:27.714Z,100916.2
2023-05-10T10:14:33.068Z,100914.77
2023-05-10T10:15:38.504Z,100918.3
2023-05-10T10:17:07.935Z,100920.47
2023-05-10T10:18:14.021Z,100912.38
2023-05-10T10:19:19.563Z,100905.1
2023-05-10T10:20:24.924Z,100912.72
2023-05-10T10:21:30.947Z,100911.73
2023-05-10T10:22:36.255Z,100915.39
2023-05-10T10:23:41.628Z,100909.22
2023-05-10T10:24:47.002Z,100902.89
2023-05-10T10:25:52.332Z,100896.61
2023-05-10T10:26:57.730Z,100907.53
2023-05-10T10:28:03.062Z,100916.95
2023-05-10T10:29:08.420Z,100910.39
2023-05-10T10:30:13.865Z,100908.57
2023-05-10T10:31:19.556Z,100915.33
2023-05-10T10:32:25.091Z,100913.48
2023-05-10T10:33:30.818Z,100900.09
2023-05-10T10:34:36.243Z,100909.4
2023-05-10T10:35:41.587Z,100900.54
2023-05-10T10:36:46.931Z,100907.78
2023-05-10T10:37:52.278Z,100907.94
2023-05-10T10:38:57.577Z,100903.86
2023-05-10T10:40:02.951Z,100905.27
2023-05-10T10:41:08.266Z,100906.73
2023-05-10T10:42:13.620Z,100897.3
2023-05-10T10:43:19.002Z,100889.69
2023-05-10T10:44:24.569Z,100904.63
2023-05-10T10:45:30.038Z,100887.92
2023-05-10T10:46:35.494Z,100895.6
2023-05-10T10:47:41.315Z,100886.95
2023-05-10T10:48:46.796Z,100886.64
2023-05-10T10:49:52.160Z,100889.67
2023-05-10T10:50:57.502Z,100884.38
2023-05-10T10:52:02.847Z,100886.92
2023-05-10T10:53:08.329Z,100874.72
2023-05-10T10:54:13.734Z,100878.25
2023-05-10T10:55:19.606Z,100878.97
2023-05-10T10:56:25.147Z,100887.64
2023-05-10T10:57:30.580Z,100894.27
2023-05-10T10:58:35.913Z,100878.78
2023-05-10T10:59:41.259Z,100874.13
2023-05-10T11:00:46.704Z,100889.6
2023-05-10T11:01:52.056Z,100885.42
2023-05-10T11:02:57.646Z,100887.62
2023-05-10T11:04:03.333Z,100891.13
2023-05-10T11:05:08.736Z,100880.06
2023-05-10T11:06:14.121Z,100878.73
2023-05-10T11:07:19.459Z,100890.87
2023-05-10T11:08:24.776Z,100888.2
2023-05-10T11:09:30.153Z,100880.06
2023-05-10T11:10:35.495Z,100879.17
2023-05-10T11:11:41.024Z,100875.16
2023-05-10T11:12:46.402Z,100876.5
2023-05-10T11:13:52.989Z,100874.64
2023-05-10T11:14:58.349Z,100867.03
2023-05-10T11:16:03.681Z,100875.58
2023-05-10T11:17:09.222Z,100881.75
2023-05-10T11:18:14.774Z,100879.59
2023-05-10T11:19:20.135Z,100872.31
2023-05-10T11:20:25.533Z,100879.94
2023-05-10T11:21:30.841Z,100862.6
2023-05-10T11:22:36.222Z,100863.46
2023-05-10T11:23:41.537Z,100852.82
2023-05-10T11:24:47.552Z,100859.45
2023-05-10T11:25:54.278Z,100867.95
2023-05-10T11:26:59.640Z,100866.96
2023-05-10T11:28:05.174Z,100850.84
2023-05-10T11:29:10.522Z,100863.77
2023-05-10T11:30:16.451Z,100864.8
2023-05-10T11:31:22.776Z,100874.16
2023-05-10T11:32:28.311Z,100877.84
2023-05-10T11:33:34.000Z,100869.8
2023-05-10T11:34:39.330Z,100866.78
2023-05-10T11:35:45.185Z,100868.53
2023-05-10T11:36:50.605Z,100871.14
2023-05-10T11:37:55.942Z,100876.5
2023-05-10T11:39:01.283Z,100869.46
2023-05-10T11:40:06.626Z,100868.53
2023-05-10T11:41:11.953Z,100864.94
2023-05-10T11:42:17.402Z,100867.03
2023-05-10T11:43:22.768Z,100872.83
2023-05-10T11:44:28.107Z,100870.98
2023-05-10T11:45:33.458Z,100861.09
2023-05-10T11:46:38.841Z,100872.73
2023-05-10T11:47:44.478Z,100870.56
2023-05-10T11:48:50.055Z,100873.72
2023-05-10T11:49:55.750Z,100868.3
2023-05-10T11:51:01.086Z,100871.8
2023-05-10T11:52:06.424Z,100871.33
2023-05-10T11:53:11.884Z,100867.47
2023-05-10T11:54:17.238Z,100861.95
2023-05-10T11:55:24.874Z,100869.12
2023-05-10T11:56:30.478Z,100858.01
2023-05-10T11:57:35.976Z,100849.05
2023-05-10T11:58:41.327Z,100864.01
2023-05-10T11:59:46.679Z,100856.33
2023-05-10T12:00:52.039Z,100863.94
2023-05-10T12:01:57.401Z,100859.86
2023-05-10T12:03:03.059Z,100865.56
2023-05-10T12:04:08.975Z,100862.95
2023-05-10T12:05:14.690Z,100824.96
2023-05-10T12:06:20.013Z,100859.52
2023-05-10T12:07:25.365Z,100863.46
2023-05-10T12:08:30.711Z,100866.9
2023-05-10T12:09:45.165Z,100873.08
2023-05-10T12:10:50.531Z,100864.28
2023-05-10T12:11:55.868Z,100865.05
2023-05-10T12:13:01.208Z,100862.95
2023-05-10T12:14:06.522Z,100863.87
2023-05-10T12:15:11.975Z,100867.89
2023-05-10T12:16:17.427Z,100868.65
2023-05-10T12:17:22.848Z,100861.03
2023-05-10T12:18:28.285Z,100853.06
2023-05-10T12:19:33.707Z,100848.23
2023-05-10T12:20:39.023Z,100858.87
2023-05-10T12:21:44.359Z,100853.64
2023-05-10T12:22:49.845Z,100865.28
2023-05-10T12:23:55.148Z,100870.94
2023-05-10T12:25:00.486Z,100866.78
2023-05-10T12:26:05.802Z,100867.13
2023-05-10T12:27:11.201Z,100869.3
2023-05-10T12:28:16.550Z,100867.47
2023-05-10T12:29:21.866Z,100864.28